Time;durP1;ratioP1;P1;durP2;ratioP2;P2;SDS_P1;SDS_P2;PMS_P1;PMS_P2;Temp;Humidity;BMP_temperature;BMP_pressure;BME280_temperature;BME280_humidity;BME280_pressure;Samples;Min_cycle;Max_cycle;Signal;HPM_P1;HPM_P2
2023/09/24 00:01:13;;;;;;;9.02;6.15;;;13.30;99.90;;;;;;5054633;28;20040;-75
2023/09/24 00:03:40;;;;;;;7.18;5.40;;;13.30;99.90;;;;;;5062591;28;20040;-75
2023/09/24 00:06:08;;;;;;;6.47;5.10;;;13.30;99.90;;;;;;5052070;28;20052;-75
2023/09/24 00:08:34;;;;;;;7.82;5.90;;;13.40;99.90;;;;;;5057436;28;20050;-74
2023/09/24 00:11:02;;;;;;;12.65;6.40;;;13.30;99.90;;;;;;5054745;28;20098;-75
2023/09/24 00:13:29;;;;;;;6.82;5.55;;;13.30;99.90;;;;;;5056904;28;20048;-75
2023/09/24 00:16:06;;;;;;;8.15;6.07;;;13.30;99.90;;;;;;5065724;28;20040;-75
2023/09/24 00:18:33;;;;;;;7.18;5.72;;;13.30;99.90;;;;;;5041421;28;20044;-75
2023/09/24 00:20:59;;;;;;;6.53;5.72;;;13.30;99.90;;;;;;5049471;28;20128;-75
2023/09/24 00:23:24;;;;;;;10.68;5.82;;;13.30;99.90;;;;;;5071216;28;20182;-75
2023/09/24 00:25:50;;;;;;;5.88;5.28;;;13.30;99.90;;;;;;5051311;28;20051;-75
2023/09/24 00:28:16;;;;;;;5.80;5.25;;;13.20;99.90;;;;;;5065058;28;20151;-75
2023/09/24 00:30:43;;;;;;;7.65;6.18;;;13.20;99.90;;;;;;5049010;28;20922;-75
2023/09/24 00:33:09;;;;;;;10.45;6.45;;;13.20;99.90;;;;;;5055465;28;20169;-75
2023/09/24 00:35:35;;;;;;;10.90;6.43;;;13.20;99.90;;;;;;5062442;28;20041;-75
2023/09/24 00:38:01;;;;;;;8.13;5.70;;;13.10;99.90;;;;;;5051188;28;20056;-75
2023/09/24 00:40:27;;;;;;;10.52;6.78;;;13.10;99.90;;;;;;5053763;28;20033;-75
2023/09/24 00:42:53;;;;;;;10.23;7.03;;;13.10;99.90;;;;;;5055570;28;20037;-75
2023/09/24 00:45:21;;;;;;;16.73;7.40;;;13.20;99.90;;;;;;5067754;28;20076;-75
2023/09/24 00:47:48;;;;;;;46.80;8.75;;;13.20;99.90;;;;;;5049400;28;20071;-75
2023/09/24 00:50:15;;;;;;;43.28;7.78;;;13.20;99.90;;;;;;5048903;28;20049;-75
2023/09/24 00:52:43;;;;;;;77.13;10.43;;;13.20;99.90;;;;;;5060624;28;20064;-75
2023/09/24 00:55:10;;;;;;;53.25;8.45;;;13.30;99.90;;;;;;5051777;28;20404;-74
2023/09/24 00:57:36;;;;;;;61.97;8.77;;;13.20;99.90;;;;;;5075781;28;20058;-75
2023/09/24 01:00:14;;;;;;;101.40;9.45;;;13.20;99.90;;;;;;5065703;28;20131;-75
2023/09/24 01:02:40;;;;;;;44.30;8.02;;;13.20;99.90;;;;;;5064085;28;20037;-75
2023/09/24 01:05:10;;;;;;;61.50;8.90;;;13.20;99.90;;;;;;5058818;28;20587;-75
2023/09/24 01:07:37;;;;;;;57.63;8.10;;;13.20;99.90;;;;;;5054694;28;20051;-75
2023/09/24 01:10:04;;;;;;;40.40;7.80;;;13.20;99.90;;;;;;5056906;28;20471;-75
2023/09/24 01:12:30;;;;;;;60.97;7.45;;;13.20;99.90;;;;;;5056190;28;20045;-74
2023/09/24 01:14:59;;;;;;;60.15;7.68;;;13.20;99.90;;;;;;5056847;28;20059;-74
2023/09/24 01:17:25;;;;;;;25.25;7.20;;;13.20;99.90;;;;;;5055260;28;20044;-75
2023/09/24 01:19:55;;;;;;;33.67;6.72;;;13.20;99.90;;;;;;5053271;28;20044;-75
2023/09/24 01:22:21;;;;;;;51.05;7.80;;;13.20;99.90;;;;;;5054265;28;20059;-75
2023/09/24 01:24:47;;;;;;;40.65;7.35;;;13.20;99.90;;;;;;5053150;28;20733;-74
2023/09/24 01:27:13;;;;;;;34.72;8.00;;;13.20;99.90;;;;;;5050656;28;20053;-74
2023/09/24 01:29:40;;;;;;;42.83;8.85;;;13.20;99.90;;;;;;5062747;28;20087;-74
2023/09/24 01:32:06;;;;;;;75.97;11.05;;;13.20;99.90;;;;;;5056892;28;20051;-74
2023/09/24 01:34:35;;;;;;;37.13;10.25;;;13.20;99.90;;;;;;5054892;28;20045;-75
2023/09/24 01:37:09;;;;;;;52.08;11.70;;;13.20;99.90;;;;;;5056648;28;20051;-75
2023/09/24 01:39:36;;;;;;;50.95;12.65;;;13.20;99.90;;;;;;5049948;28;20144;-75
2023/09/24 01:42:02;;;;;;;81.65;15.00;;;13.20;99.90;;;;;;5058105;28;20044;-74
2023/09/24 01:44:32;;;;;;;66.53;17.38;;;13.20;99.90;;;;;;5057870;28;20049;-75
2023/09/24 01:46:58;;;;;;;44.55;19.65;;;13.30;99.90;;;;;;5054525;28;20052;-74
2023/09/24 01:49:24;;;;;;;54.60;20.08;;;13.30;99.90;;;;;;5049181;28;20048;-75
2023/09/24 01:51:50;;;;;;;57.05;18.33;;;13.30;99.90;;;;;;5058627;28;20534;-75
2023/09/24 01:54:15;;;;;;;51.40;20.60;;;13.30;99.90;;;;;;5052840;28;20100;-75
2023/09/24 01:56:42;;;;;;;32.97;18.13;;;13.30;99.90;;;;;;5050936;28;20045;-74
2023/09/24 01:59:08;;;;;;;33.13;19.00;;;13.30;99.90;;;;;;5054241;28;20088;-75
2023/09/24 02:01:35;;;;;;;33.92;16.45;;;13.30;99.90;;;;;;5058019;28;20500;-75
2023/09/24 02:04:03;;;;;;;31.85;12.07;;;13.30;99.90;;;;;;5049754;28;20088;-75
2023/09/24 02:06:30;;;;;;;66.30;14.50;;;13.30;99.90;;;;;;5059785;28;20049;-74
2023/09/24 02:08:55;;;;;;;38.72;12.57;;;13.30;99.90;;;;;;5058749;28;20427;-76
2023/09/24 02:11:21;;;;;;;31.00;12.55;;;13.30;99.90;;;;;;5077413;28;20041;-76
2023/09/24 02:13:47;;;;;;;78.85;14.30;;;13.30;99.90;;;;;;5056206;28;20136;-76
2023/09/24 02:16:12;;;;;;;46.10;12.80;;;13.30;99.90;;;;;;5064287;28;20045;-76
2023/09/24 02:18:38;;;;;;;34.47;12.10;;;13.30;99.90;;;;;;5073900;28;20041;-76
2023/09/24 02:21:18;;;;;;;26.45;12.23;;;13.30;99.90;;;;;;5062407;28;20044;-76
2023/09/24 02:23:44;;;;;;;35.88;11.20;;;13.30;99.90;;;;;;5049741;28;20060;-76
2023/09/24 02:26:13;;;;;;;20.90;10.43;;;13.30;99.90;;;;;;5060469;28;20036;-76
2023/09/24 02:28:39;;;;;;;16.98;11.25;;;13.30;99.90;;;;;;5055583;28;20040;-76
2023/09/24 02:31:14;;;;;;;13.38;11.98;;;13.30;99.90;;;;;;5076715;28;20124;-76
2023/09/24 02:33:39;;;;;;;12.65;11.35;;;13.30;99.90;;;;;;5050086;28;20041;-76
2023/09/24 02:36:08;;;;;;;11.43;10.10;;;13.20;99.90;;;;;;5055086;28;20044;-76
2023/09/24 02:38:34;;;;;;;13.90;11.05;;;13.20;99.90;;;;;;5056459;28;20494;-76
2023/09/24 02:41:00;;;;;;;14.73;11.68;;;13.20;99.90;;;;;;5054435;28;20195;-76
2023/09/24 02:43:27;;;;;;;13.23;11.40;;;13.10;99.90;;;;;;5060951;28;20501;-76
2023/09/24 02:45:53;;;;;;;15.48;11.02;;;13.10;99.90;;;;;;5050244;28;20048;-76
2023/09/24 02:48:18;;;;;;;14.85;11.98;;;13.10;99.90;;;;;;5063923;28;20403;-76
2023/09/24 02:50:44;;;;;;;17.42;13.70;;;13.00;99.90;;;;;;5058984;28;20083;-76
2023/09/24 02:53:10;;;;;;;15.10;11.68;;;13.00;99.90;;;;;;5059033;28;20095;-76
2023/09/24 02:55:36;;;;;;;17.42;11.57;;;12.90;99.90;;;;;;5054576;28;20048;-76
2023/09/24 02:58:05;;;;;;;15.85;11.05;;;12.90;99.90;;;;;;5052132;28;20041;-76
2023/09/24 03:00:36;;;;;;;12.88;9.98;;;12.90;99.90;;;;;;5060504;28;20442;-76
2023/09/24 03:03:05;;;;;;;11.93;9.88;;;12.80;99.90;;;;;;5054360;28;20044;-76
2023/09/24 03:05:31;;;;;;;11.30;8.82;;;12.80;99.90;;;;;;5055664;28;20059;-76
2023/09/24 03:08:00;;;;;;;11.52;8.88;;;12.70;99.90;;;;;;5050317;28;20836;-76
2023/09/24 03:10:26;;;;;;;9.75;8.55;;;12.70;99.90;;;;;;5052703;28;20056;-76
2023/09/24 03:12:52;;;;;;;9.00;7.82;;;12.60;99.90;;;;;;5054781;28;20087;-76
2023/09/24 03:15:19;;;;;;;11.68;8.55;;;12.60;99.90;;;;;;5048604;28;20132;-76
2023/09/24 03:17:48;;;;;;;;;;;12.60;99.90;;;;;;5050604;28;20546;-76
2023/09/24 03:20:15;;;;;;;11.23;8.70;;;12.50;99.90;;;;;;5056560;28;19920;-76
2023/09/24 03:22:48;;;;;;;8.43;7.55;;;12.50;99.90;;;;;;5048934;28;20041;-76
2023/09/24 03:25:19;;;;;;;10.30;7.43;;;12.50;99.90;;;;;;5065102;28;20048;-76
2023/09/24 03:27:46;;;;;;;9.48;7.00;;;12.40;99.90;;;;;;5068821;28;20053;-76
2023/09/24 03:30:14;;;;;;;9.95;7.60;;;12.40;99.90;;;;;;5056059;28;20041;-76
2023/09/24 03:32:40;;;;;;;11.98;8.60;;;12.40;99.90;;;;;;5052090;28;20098;-76
2023/09/24 03:35:10;;;;;;;12.90;9.00;;;12.30;99.90;;;;;;5052837;28;20040;-75
2023/09/24 03:37:37;;;;;;;12.30;9.18;;;12.30;99.90;;;;;;5069183;28;20403;-76
2023/09/24 03:40:06;;;;;;;;;;;12.30;99.90;;;;;;5048760;28;20072;-76
2023/09/24 03:42:32;;;;;;;12.40;8.65;;;12.30;99.90;;;;;;5052942;28;21962;-76
2023/09/24 03:44:57;;;;;;;13.93;9.88;;;12.30;99.90;;;;;;5050199;28;20072;-76
2023/09/24 03:47:23;;;;;;;13.80;9.63;;;12.30;99.90;;;;;;5047407;28;20124;-76
2023/09/24 03:49:49;;;;;;;14.43;8.52;;;12.20;99.90;;;;;;5063256;28;20044;-76
2023/09/24 03:52:14;;;;;;;12.45;8.73;;;12.20;99.90;;;;;;5060335;28;20082;-76
2023/09/24 03:54:40;;;;;;;9.85;8.85;;;12.20;99.90;;;;;;5049432;28;20039;-76
2023/09/24 03:57:06;;;;;;;10.68;8.32;;;12.10;99.90;;;;;;5055430;28;20044;-76
2023/09/24 03:59:38;;;;;;;10.50;8.80;;;12.10;99.90;;;;;;5075421;28;20066;-76
2023/09/24 04:02:07;;;;;;;9.63;8.60;;;12.10;99.90;;;;;;5054643;28;20079;-76
2023/09/24 04:04:35;;;;;;;11.68;9.57;;;12.10;99.90;;;;;;5049242;28;20136;-76
2023/09/24 04:07:02;;;;;;;11.60;9.82;;;12.00;99.90;;;;;;5050750;28;20829;-76
2023/09/24 04:09:32;;;;;;;11.93;9.65;;;12.00;99.90;;;;;;5048864;28;20052;-76
2023/09/24 04:11:59;;;;;;;10.80;9.35;;;12.00;99.90;;;;;;5077328;28;20123;-76
2023/09/24 04:14:25;;;;;;;11.43;8.73;;;12.00;99.90;;;;;;5079806;28;20063;-76
2023/09/24 04:16:52;;;;;;;10.15;9.02;;;12.00;99.90;;;;;;5056036;28;20075;-76
2023/09/24 04:19:17;;;;;;;11.05;8.32;;;12.00;99.90;;;;;;5067448;28;20052;-76
2023/09/24 04:21:45;;;;;;;11.65;9.00;;;11.90;99.90;;;;;;5052427;28;20080;-76
2023/09/24 04:24:12;;;;;;;10.02;8.60;;;11.90;99.90;;;;;;5052280;28;20133;-76
2023/09/24 04:26:39;;;;;;;10.65;8.40;;;11.90;99.90;;;;;;5054018;28;20053;-76
2023/09/24 04:29:05;;;;;;;10.98;8.40;;;11.90;99.90;;;;;;5056997;28;20052;-76
2023/09/24 04:31:31;;;;;;;10.50;8.30;;;11.90;99.90;;;;;;5048250;28;20094;-76
2023/09/24 04:33:57;;;;;;;9.38;8.00;;;11.80;99.90;;;;;;5074182;28;20048;-73
2023/09/24 04:36:23;;;;;;;11.15;8.50;;;11.80;99.90;;;;;;5070192;28;20443;-73
2023/09/24 04:38:49;;;;;;;10.13;7.60;;;11.80;99.90;;;;;;5068229;28;20080;-74
2023/09/24 04:41:17;;;;;;;10.88;8.65;;;11.80;99.90;;;;;;5071981;28;20052;-74
2023/09/24 04:43:43;;;;;;;10.85;8.32;;;11.80;99.90;;;;;;5062881;28;20583;-74
2023/09/24 04:46:09;;;;;;;11.57;9.27;;;11.80;99.90;;;;;;5067352;28;20048;-71
2023/09/24 04:48:35;;;;;;;12.10;9.23;;;11.80;99.90;;;;;;5050528;28;20506;-73
2023/09/24 04:51:01;;;;;;;13.68;9.70;;;11.80;99.90;;;;;;5045555;28;20049;-74
2023/09/24 04:53:28;;;;;;;14.50;9.05;;;11.80;99.90;;;;;;5053527;28;20044;-74
2023/09/24 04:55:54;;;;;;;11.43;9.10;;;11.80;99.90;;;;;;5053362;28;20037;-74
2023/09/24 04:58:21;;;;;;;9.90;8.60;;;11.80;99.90;;;;;;5054623;28;20086;-74
2023/09/24 05:00:46;;;;;;;10.68;9.02;;;11.70;99.90;;;;;;5054487;28;20774;-74
2023/09/24 05:03:12;;;;;;;11.05;8.48;;;11.70;99.90;;;;;;5051580;28;20106;-74
2023/09/24 05:05:44;;;;;;;10.35;8.50;;;11.70;99.90;;;;;;5051548;28;20057;-74
2023/09/24 05:08:10;;;;;;;10.10;8.50;;;11.70;99.90;;;;;;5059136;28;20053;-72
2023/09/24 05:10:40;;;;;;;9.77;8.45;;;11.70;99.90;;;;;;5056944;28;20442;-74
2023/09/24 05:13:06;;;;;;;12.68;8.40;;;11.60;99.90;;;;;;5037749;28;20049;-74
2023/09/24 05:15:32;;;;;;;11.13;8.90;;;11.60;99.90;;;;;;5056471;28;20041;-74
2023/09/24 05:17:57;;;;;;;9.90;8.25;;;11.60;99.90;;;;;;5056137;28;20044;-74
2023/09/24 05:20:23;;;;;;;10.27;8.45;;;11.60;99.90;;;;;;5049212;28;20048;-74
2023/09/24 05:22:49;;;;;;;12.93;9.07;;;11.60;99.90;;;;;;5045383;28;20048;-74
2023/09/24 05:25:15;;;;;;;11.68;9.73;;;11.60;99.90;;;;;;5063753;28;20041;-74
2023/09/24 05:27:40;;;;;;;9.85;8.70;;;11.50;99.90;;;;;;5054760;28;20504;-72
2023/09/24 05:30:08;;;;;;;11.13;8.45;;;11.50;99.90;;;;;;5050180;28;20041;-74
2023/09/24 05:32:34;;;;;;;9.95;8.75;;;11.60;99.90;;;;;;5052797;28;20048;-74
2023/09/24 05:35:00;;;;;;;12.90;8.77;;;11.60;99.90;;;;;;5050111;28;20045;-74
2023/09/24 05:37:26;;;;;;;12.55;9.13;;;11.50;99.90;;;;;;5053382;28;20103;-74
2023/09/24 05:39:52;;;;;;;9.70;8.63;;;11.50;99.90;;;;;;5058875;28;20044;-74
2023/09/24 05:42:17;;;;;;;10.95;9.75;;;11.50;99.90;;;;;;5053019;28;20049;-74
2023/09/24 05:44:43;;;;;;;13.57;9.32;;;11.50;99.90;;;;;;5054905;28;20048;-74
2023/09/24 05:47:10;;;;;;;13.25;9.20;;;11.50;99.90;;;;;;5062468;28;20048;-74
2023/09/24 05:49:36;;;;;;;12.40;9.88;;;11.50;99.90;;;;;;5052420;28;20087;-75
2023/09/24 05:52:03;;;;;;;12.45;10.38;;;11.50;99.90;;;;;;5059419;28;20041;-75
2023/09/24 05:54:28;;;;;;;14.50;10.70;;;11.50;99.90;;;;;;5074497;28;20064;-75
2023/09/24 05:56:54;;;;;;;10.95;9.85;;;11.50;99.90;;;;;;5061587;28;20079;-75
2023/09/24 05:59:20;;;;;;;11.70;10.25;;;11.60;99.90;;;;;;5061138;28;20049;-75
2023/09/24 06:01:46;;;;;;;13.60;10.75;;;11.60;99.90;;;;;;5057561;28;20047;-75
2023/09/24 06:04:11;;;;;;;13.77;10.75;;;11.60;99.90;;;;;;5050607;28;20589;-75
2023/09/24 06:06:37;;;;;;;14.60;11.52;;;11.60;99.90;;;;;;5059010;28;20058;-74
2023/09/24 06:09:09;;;;;;;16.25;11.52;;;11.70;99.90;;;;;;5054863;28;20079;-75
2023/09/24 06:11:37;;;;;;;13.50;12.05;;;11.70;99.90;;;;;;5054319;28;20095;-74
2023/09/24 06:14:08;;;;;;;14.10;11.48;;;11.70;99.90;;;;;;5053180;28;20056;-75
2023/09/24 06:16:37;;;;;;;12.05;10.77;;;11.80;99.90;;;;;;5055155;28;20050;-75
2023/09/24 06:19:03;;;;;;;17.23;11.45;;;11.80;99.90;;;;;;5058033;28;20076;-75
2023/09/24 06:21:29;;;;;;;14.33;11.53;;;11.80;99.90;;;;;;5056824;28;20399;-75
2023/09/24 06:23:55;;;;;;;12.73;10.63;;;11.80;99.90;;;;;;5057324;28;20059;-74
2023/09/24 06:26:21;;;;;;;15.85;11.73;;;11.80;99.90;;;;;;5051241;28;20072;-74
2023/09/24 06:28:47;;;;;;;14.10;11.80;;;11.90;99.90;;;;;;5054970;28;20048;-74
2023/09/24 06:31:13;;;;;;;12.30;10.90;;;11.90;99.90;;;;;;5063051;28;20056;-74
2023/09/24 06:33:39;;;;;;;15.70;12.23;;;11.90;99.90;;;;;;5052496;28;20045;-75
2023/09/24 06:36:05;;;;;;;12.15;10.80;;;11.90;99.90;;;;;;5069514;28;20427;-75
2023/09/24 06:38:32;;;;;;;16.70;12.65;;;12.00;99.90;;;;;;5063770;28;20044;-75
2023/09/24 06:41:03;;;;;;;16.85;12.60;;;12.00;99.90;;;;;;5057567;28;20128;-75
2023/09/24 06:43:33;;;;;;;14.00;12.35;;;12.00;99.90;;;;;;5069131;28;20646;-74
2023/09/24 06:46:02;;;;;;;15.18;12.07;;;12.10;99.90;;;;;;5047118;28;20128;-74
2023/09/24 06:48:28;;;;;;;16.05;12.38;;;12.10;99.90;;;;;;5058415;28;20102;-79
2023/09/24 06:50:54;;;;;;;14.18;12.65;;;12.20;99.90;;;;;;5057802;28;20049;-76
2023/09/24 06:53:20;;;;;;;17.30;13.57;;;12.20;99.90;;;;;;5070954;28;20641;-84
2023/09/24 06:55:46;;;;;;;14.75;12.75;;;12.30;99.90;;;;;;5060947;28;20408;-72
2023/09/24 06:58:14;;;;;;;15.32;12.48;;;12.30;99.90;;;;;;5058555;28;20047;-72
2023/09/24 07:00:40;;;;;;;13.85;11.90;;;12.40;99.90;;;;;;5061231;28;20041;-72
2023/09/24 07:03:06;;;;;;;15.02;12.77;;;12.50;99.90;;;;;;5053276;28;20361;-72
2023/09/24 07:05:32;;;;;;;14.15;12.02;;;12.50;99.90;;;;;;5055158;28;20504;-73
2023/09/24 07:07:57;;;;;;;15.52;12.80;;;12.60;99.90;;;;;;5059874;28;20071;-71
2023/09/24 07:10:24;;;;;;;14.25;12.75;;;12.60;99.90;;;;;;5052285;28;20099;-72
2023/09/24 07:12:51;;;;;;;17.02;12.52;;;12.70;99.90;;;;;;5051725;28;20045;-71
2023/09/24 07:15:16;;;;;;;15.43;12.45;;;12.70;99.90;;;;;;5054664;28;20045;-73
2023/09/24 07:17:42;;;;;;;17.08;13.32;;;12.80;99.90;;;;;;5055341;28;20037;-73
2023/09/24 07:20:09;;;;;;;14.48;12.48;;;12.90;99.90;;;;;;5058735;28;20063;-73
2023/09/24 07:22:35;;;;;;;13.40;12.02;;;12.90;99.90;;;;;;5068789;28;20052;-73
2023/09/24 07:25:01;;;;;;;15.88;12.52;;;13.00;99.90;;;;;;5053842;28;20095;-72
2023/09/24 07:27:26;;;;;;;14.48;12.18;;;13.10;99.90;;;;;;5053028;28;20042;-73
2023/09/24 07:29:52;;;;;;;12.90;11.57;;;13.10;99.90;;;;;;5055390;28;20048;-73
2023/09/24 07:32:18;;;;;;;19.17;12.75;;;13.20;99.90;;;;;;5055592;28;20076;-73
2023/09/24 07:34:47;;;;;;;15.45;12.40;;;13.20;99.90;;;;;;5058891;28;20131;-75
2023/09/24 07:37:14;;;;;;;14.43;11.82;;;13.20;99.90;;;;;;5047669;28;20061;-75
2023/09/24 07:39:40;;;;;;;16.85;12.82;;;13.30;99.90;;;;;;5049497;28;20046;-75
2023/09/24 07:42:07;;;;;;;13.90;11.98;;;13.30;99.90;;;;;;5055447;28;20054;-75
2023/09/24 07:44:33;;;;;;;15.05;12.93;;;13.40;99.90;;;;;;5060959;28;20044;-75
2023/09/24 07:46:59;;;;;;;14.88;12.38;;;13.40;99.90;;;;;;5070964;28;20483;-75
2023/09/24 07:49:24;;;;;;;13.60;11.98;;;13.50;99.90;;;;;;5060316;28;20044;-74
2023/09/24 07:51:50;;;;;;;16.17;12.25;;;13.50;99.90;;;;;;5054476;28;20400;-75
2023/09/24 07:54:17;;;;;;;14.02;11.65;;;13.60;99.90;;;;;;5054364;28;20055;-75
2023/09/24 07:56:43;;;;;;;12.75;11.45;;;13.60;99.90;;;;;;5049555;28;20057;-75
2023/09/24 07:59:10;;;;;;;16.95;12.13;;;13.70;99.90;;;;;;5054082;28;20120;-74
2023/09/24 08:01:36;;;;;;;15.43;10.85;;;13.70;99.90;;;;;;5052456;28;20047;-75
2023/09/24 08:04:02;;;;;;;14.38;11.43;;;13.80;99.90;;;;;;5048405;28;20057;-76
2023/09/24 08:06:28;;;;;;;13.57;11.15;;;13.90;99.90;;;;;;5049221;28;20055;-75
2023/09/24 08:08:55;;;;;;;14.23;11.02;;;13.90;99.90;;;;;;5055047;28;20056;-75
2023/09/24 08:11:21;;;;;;;15.55;10.57;;;14.00;99.90;;;;;;5058940;28;20033;-76
2023/09/24 08:13:47;;;;;;;12.43;9.90;;;14.00;99.90;;;;;;5064490;28;20044;-76
2023/09/24 08:16:13;;;;;;;13.32;10.68;;;14.10;99.90;;;;;;5048961;28;20078;-76
2023/09/24 08:18:40;;;;;;;13.88;10.10;;;14.10;99.90;;;;;;5050082;28;20037;-76
2023/09/24 08:21:06;;;;;;;11.63;8.93;;;14.20;99.90;;;;;;5049789;28;20435;-76
2023/09/24 08:23:32;;;;;;;14.93;10.13;;;14.30;99.90;;;;;;5058427;28;20086;-75
2023/09/24 08:25:59;;;;;;;11.20;9.45;;;14.40;99.90;;;;;;5053577;28;20094;-75
2023/09/24 08:28:25;;;;;;;14.48;9.50;;;14.40;99.90;;;;;;5052290;28;20071;-77
2023/09/24 08:30:51;;;;;;;14.27;8.52;;;14.40;99.90;;;;;;5049019;28;20542;-77
2023/09/24 08:33:17;;;;;;;13.77;8.98;;;14.50;99.90;;;;;;5058205;28;20083;-77
2023/09/24 08:35:43;;;;;;;14.52;8.70;;;14.50;99.90;;;;;;5048248;28;20076;-78
2023/09/24 08:38:09;;;;;;;12.60;8.45;;;14.60;99.90;;;;;;5055686;28;20068;-78
2023/09/24 08:40:35;;;;;;;12.55;7.88;;;14.60;99.90;;;;;;5049075;28;20515;-76
2023/09/24 08:43:09;;;;;;;12.45;7.88;;;14.70;99.90;;;;;;5053119;28;20083;-77
2023/09/24 08:45:35;;;;;;;11.52;7.80;;;14.70;99.90;;;;;;5048226;28;20091;-78
2023/09/24 08:48:07;;;;;;;11.73;6.97;;;14.80;99.90;;;;;;5061720;28;20096;-79
2023/09/24 08:50:37;;;;;;;11.35;6.57;;;14.90;99.90;;;;;;5047338;28;20080;-78
2023/09/24 08:53:08;;;;;;;11.50;6.55;;;14.90;99.90;;;;;;5047168;28;20128;-76
2023/09/24 08:55:34;;;;;;;11.00;6.30;;;14.90;99.90;;;;;;5058460;28;20044;-78
2023/09/24 08:58:00;;;;;;;9.60;5.63;;;15.00;99.90;;;;;;5058797;28;20450;-78
2023/09/24 09:00:26;;;;;;;11.10;6.00;;;15.00;99.90;;;;;;5052570;28;20057;-76
2023/09/24 09:02:52;;;;;;;9.18;5.50;;;15.10;99.90;;;;;;5060068;28;20144;-75
2023/09/24 09:05:24;;;;;;;11.98;5.50;;;15.20;99.90;;;;;;5060417;28;20048;-73
2023/09/24 09:07:58;;;;;;;8.95;4.82;;;15.20;99.90;;;;;;5054553;28;20045;-73
2023/09/24 09:10:35;;;;;;;11.30;4.80;;;15.20;99.90;;;;;;5057344;28;20054;-73
2023/09/24 09:13:05;;;;;;;9.50;4.28;;;15.30;99.90;;;;;;5051224;28;20405;-73
2023/09/24 09:15:32;;;;;;;8.73;4.07;;;15.40;99.90;;;;;;5069002;28;20041;-75
2023/09/24 09:17:57;;;;;;;8.02;4.72;;;15.40;99.90;;;;;;5058249;28;20045;-73
2023/09/24 09:20:40;;;;;;;9.20;4.40;;;15.50;99.90;;;;;;5060198;28;20047;-71
2023/09/24 09:23:12;;;;;;;7.45;4.68;;;15.50;99.90;;;;;;5056013;28;20041;-71
2023/09/24 09:25:55;;;;;;;9.20;4.70;;;15.60;99.90;;;;;;5062403;28;20060;-72
2023/09/24 09:28:24;;;;;;;11.38;4.20;;;15.60;99.90;;;;;;5057474;28;20503;-72
2023/09/24 09:31:10;;;;;;;7.82;3.67;;;15.70;99.90;;;;;;5062551;28;20729;-72
2023/09/24 09:33:42;;;;;;;8.30;3.70;;;15.80;99.90;;;;;;5052690;28;20128;-72
2023/09/24 09:36:21;;;;;;;11.07;4.25;;;15.80;99.90;;;;;;5052721;28;20041;-72
2023/09/24 09:38:51;;;;;;;6.57;3.08;;;15.80;99.90;;;;;;5077342;28;20052;-75
2023/09/24 09:41:23;;;;;;;7.30;3.70;;;15.90;99.90;;;;;;5051128;28;20041;-74
2023/09/24 09:43:52;;;;;;;8.07;3.63;;;16.00;99.90;;;;;;5050864;28;20128;-77
2023/09/24 09:46:19;;;;;;;7.30;3.53;;;16.00;99.90;;;;;;5039898;28;20036;-76
2023/09/24 09:48:59;;;;;;;8.70;3.35;;;16.00;99.90;;;;;;5052079;28;20083;-74
2023/09/24 09:51:27;;;;;;;6.70;3.30;;;16.10;99.90;;;;;;5067158;28;20048;-74
2023/09/24 09:53:55;;;;;;;8.52;3.85;;;16.20;99.90;;;;;;5059218;28;20070;-75
2023/09/24 09:56:23;;;;;;;8.85;3.90;;;16.20;99.90;;;;;;5055238;28;20503;-74
2023/09/24 09:58:51;;;;;;;10.50;3.58;;;16.20;99.90;;;;;;5060409;28;20055;-75
2023/09/24 10:01:20;;;;;;;6.05;3.00;;;16.30;99.90;;;;;;5060322;28;20041;-76
2023/09/24 10:03:47;;;;;;;8.68;3.15;;;16.30;99.90;;;;;;5065366;28;20063;-76
2023/09/24 10:06:14;;;;;;;8.75;2.90;;;16.40;99.90;;;;;;5052917;28;20381;-74
2023/09/24 10:08:45;;;;;;;6.30;2.65;;;16.40;99.90;;;;;;5057643;28;20575;-73
2023/09/24 10:11:32;;;;;;;6.63;2.90;;;16.50;99.90;;;;;;5036887;28;20037;-77
2023/09/24 10:14:00;;;;;;;7.05;2.70;;;16.50;99.90;;;;;;5060339;28;20198;-75
2023/09/24 10:16:25;;;;;;;;;;;16.60;99.90;;;;;;5053084;28;20048;-75
2023/09/24 10:18:59;;;;;;;6.65;2.42;;;16.60;99.90;;;;;;5069626;28;20401;-76
2023/09/24 10:21:30;;;;;;;6.68;2.53;;;16.70;99.90;;;;;;5060284;28;20053;-75
2023/09/24 10:24:17;;;;;;;6.63;2.42;;;16.70;99.90;;;;;;5047848;28;20049;-76
2023/09/24 10:26:54;;;;;;;4.53;2.10;;;16.80;99.90;;;;;;5059618;28;20089;-76
2023/09/24 10:29:46;;;;;;;6.20;2.10;;;16.80;99.90;;;;;;5071275;28;20123;-75
2023/09/24 10:32:19;;;;;;;6.07;2.20;;;16.80;99.90;;;;;;5049735;28;20040;-76
2023/09/24 10:34:51;;;;;;;7.28;2.47;;;16.90;99.90;;;;;;5031722;28;20049;-76
2023/09/24 10:37:18;;;;;;;6.45;2.17;;;17.00;99.90;;;;;;5078741;28;20048;-77
2023/09/24 10:40:12;;;;;;;4.25;1.80;;;17.00;99.90;;;;;;5070314;28;20053;-77
2023/09/24 10:42:40;;;;;;;3.90;1.88;;;17.10;99.90;;;;;;5049844;28;20063;-76
2023/09/24 10:45:09;;;;;;;5.15;2.10;;;17.10;99.90;;;;;;5059461;28;20045;-77
2023/09/24 10:47:42;;;;;;;4.57;2.10;;;17.10;99.90;;;;;;5047713;28;20127;-77
2023/09/24 10:50:10;;;;;;;4.97;2.00;;;17.20;99.90;;;;;;5061053;28;20048;-77
2023/09/24 10:52:56;;;;;;;5.78;1.88;;;17.30;99.90;;;;;;5049063;28;20045;-76
2023/09/24 10:55:29;;;;;;;6.80;2.00;;;17.30;99.90;;;;;;5047933;28;20155;-76
2023/09/24 10:57:59;;;;;;;4.43;1.60;;;17.40;99.90;;;;;;5057909;28;20055;-77
2023/09/24 11:00:26;;;;;;;7.07;2.08;;;17.40;99.90;;;;;;5049281;28;20400;-74
2023/09/24 11:02:56;;;;;;;;;;;17.50;99.90;;;;;;5050354;28;20233;-73
2023/09/24 11:05:22;;;;;;;5.00;2.00;;;17.60;99.90;;;;;;5054261;28;20573;-74
2023/09/24 11:07:48;;;;;;;5.32;2.00;;;17.60;99.90;;;;;;5053177;28;20490;-73
2023/09/24 11:10:20;;;;;;;5.82;1.95;;;17.70;99.90;;;;;;5049538;28;20060;-76
2023/09/24 11:12:54;;;;;;;5.32;2.05;;;17.80;99.90;;;;;;5058622;28;20048;-76
2023/09/24 11:15:21;;;;;;;4.47;1.73;;;17.80;99.90;;;;;;5053339;28;20089;-76
2023/09/24 11:17:47;;;;;;;6.32;1.83;;;17.90;99.90;;;;;;5048077;28;20496;-75
2023/09/24 11:20:17;;;;;;;7.03;2.22;;;17.90;99.90;;;;;;5049213;28;20045;-75
2023/09/24 11:22:43;;;;;;;4.40;1.95;;;18.00;99.90;;;;;;5052487;28;20135;-77
2023/09/24 11:25:14;;;;;;;3.63;1.67;;;18.10;99.90;;;;;;5049797;28;20103;-76
2023/09/24 11:27:52;;;;;;;4.20;1.88;;;18.10;99.90;;;;;;5056385;28;20056;-76
2023/09/24 11:30:20;;;;;;;4.88;2.10;;;18.20;99.90;;;;;;5065104;28;20048;-74
2023/09/24 11:32:48;;;;;;;4.75;1.75;;;18.20;99.90;;;;;;5055867;28;20538;-76
2023/09/24 11:35:15;;;;;;;4.10;1.70;;;18.30;99.90;;;;;;5048616;28;20433;-73
2023/09/24 11:37:53;;;;;;;4.35;1.80;;;18.30;99.90;;;;;;5050747;28;20064;-74
2023/09/24 11:40:33;;;;;;;6.15;1.60;;;18.40;99.90;;;;;;5049929;28;20093;-73
2023/09/24 11:43:04;;;;;;;5.35;2.08;;;18.50;99.90;;;;;;5060103;28;20064;-73
2023/09/24 11:45:53;;;;;;;5.40;1.70;;;18.60;99.90;;;;;;5064372;28;20399;-74
2023/09/24 11:48:20;;;;;;;5.38;2.15;;;18.60;99.90;;;;;;5053568;28;20050;-75
2023/09/24 11:50:51;;;;;;;7.22;1.65;;;18.70;99.90;;;;;;5051164;28;20091;-74
2023/09/24 11:53:19;;;;;;;4.88;1.60;;;18.80;99.90;;;;;;5047148;28;20056;-73
2023/09/24 11:55:44;;;;;;;4.45;1.63;;;18.80;99.90;;;;;;5057018;28;20098;-73
2023/09/24 11:58:11;;;;;;;4.50;1.52;;;18.80;99.90;;;;;;5053084;28;20041;-72
2023/09/24 12:00:38;;;;;;;3.70;1.60;;;18.80;99.90;;;;;;5049594;28;20102;-75
2023/09/24 12:03:06;;;;;;;3.72;1.65;;;18.90;99.90;;;;;;5051311;28;20056;-74
2023/09/24 12:05:32;;;;;;;2.47;1.30;;;18.90;99.90;;;;;;5057750;28;20110;-74
2023/09/24 12:07:59;;;;;;;8.55;2.05;;;19.00;99.90;;;;;;5056777;28;21989;-74
2023/09/24 12:10:24;;;;;;;4.23;1.73;;;19.00;99.90;;;;;;5053555;28;20086;-74
2023/09/24 12:12:50;;;;;;;5.95;1.50;;;19.10;99.90;;;;;;5058056;28;20076;-74
2023/09/24 12:15:20;;;;;;;4.20;1.40;;;19.10;99.90;;;;;;5045862;28;20105;-73
2023/09/24 12:17:46;;;;;;;4.55;1.77;;;19.10;99.90;;;;;;5054459;28;20074;-74
2023/09/24 12:20:13;;;;;;;4.72;1.65;;;19.20;99.90;;;;;;5067729;28;20048;-73
2023/09/24 12:22:44;;;;;;;3.05;1.35;;;19.20;99.90;;;;;;5045358;28;20049;-73
2023/09/24 12:25:10;;;;;;;3.97;1.40;;;19.20;99.90;;;;;;5036533;28;20052;-73
2023/09/24 12:27:37;;;;;;;4.45;1.70;;;19.20;99.90;;;;;;5043504;28;20570;-72
2023/09/24 12:30:04;;;;;;;4.32;1.58;;;19.30;99.90;;;;;;5063109;28;20116;-72
2023/09/24 12:32:31;;;;;;;5.85;1.80;;;19.40;99.90;;;;;;5059888;28;20052;-73
2023/09/24 12:34:57;;;;;;;5.35;1.83;;;19.40;99.90;;;;;;5045448;28;20786;-73
2023/09/24 12:37:22;;;;;;;4.25;1.63;;;19.50;99.90;;;;;;5051074;28;20091;-73
2023/09/24 12:39:48;;;;;;;4.05;1.77;;;19.50;99.90;;;;;;5043092;28;20052;-73
2023/09/24 12:42:14;;;;;;;6.57;1.45;;;19.60;99.90;;;;;;5045270;28;20445;-73